Impacts METAR Board
IDs:

KT74 - Taylor Muni, TX, US

Updated at: 2200 UTC 29 May 2020
Potential Impact None Slight Moderate High
Time 29/10Z 29/11Z 29/12Z 29/13Z 29/14Z 29/15Z 29/16Z 29/17Z 29/18Z 29/19Z 29/20Z 29/21Z 29/22Z
Temp67 67 66 69 72 76 77 80 81 84 85 85 86
Dewpt66 66 65 67 67 67 67 65 64 65 62 61 59
Altim30.05 30.06 30.09 30.11 30.12 30.12 30.11 30.13 30.11 30.12 30.11 30.11 30.09
VIS10 10 10 10 10 10 10 10 10 10 10 10 10
CIG-- -- -- -- -- -- -- -- -- -- -- -- --
CoverCLRCLRSCTCLRCLRCLRSCTSCTCLRCLRCLRCLRCLR
FltCatVFRVFRVFRVFRVFRVFRVFRVFRVFRVFRVFRVFRVFR
WX--------------------------
WDir3103100340101010301030401030
WSpd4 4 0 5 9 11 14 8 7 13 11 16 13
WGst-- -- -- -- -- -- 18 -- -- 17 19 -- 17
Raw hourly METARs
KT74 290955Z AUTO 31004KT 10SM CLR 19/19 A3005 RMK AO2 T01950188
KT74 291055Z AUTO 31004KT 10SM CLR 19/19 A3006 RMK AO2 T01950187
KT74 291155Z AUTO 00000KT 10SM SCT043 19/18 A3009 RMK AO2 T01880183 10202 20188
KT74 291255Z AUTO 34005KT 10SM CLR 21/19 A3011 RMK AO2 T02080194
KT74 291355Z AUTO 01009KT 10SM CLR 22/19 A3012 RMK AO2 T02210194
KT74 291455Z AUTO 01011KT 10SM CLR 24/19 A3012 RMK AO2 T02420193
KT74 291555Z AUTO 01014G18KT 10SM SCT024 25/19 A3011 RMK AO2 T02520192
KT74 291655Z AUTO 03008KT 10SM SCT030 26/18 A3013 RMK AO2 T02650185
KT74 291755Z AUTO 01007KT 10SM CLR 27/18 A3011 RMK AO2 T02720177 10273 20188
KT74 291855Z AUTO 03013G17KT 10SM CLR 29/18 A3012 RMK AO2 T02870181
KT74 291955Z AUTO 04011G19KT 10SM CLR 29/16 A3011 RMK AO2 T02920164
KT74 292055Z AUTO 01016KT 10SM CLR 30/16 A3011 RMK AO2 T02970159
KT74 292155Z AUTO 03013G17KT 10SM CLR 30/15 A3009 RMK AO2 T02990148